Time;durP1;ratioP1;P1;durP2;ratioP2;P2;SDS_P1;SDS_P2;PMS_P1;PMS_P2;Temp;Humidity;BMP_temperature;BMP_pressure;BME280_temperature;BME280_humidity;BME280_pressure;Samples;Min_cycle;Max_cycle;Signal;HPM_P1;HPM_P2
2023/10/16 00:00:29;;;;;;;3.35;0.80;;;8.70;99.90;;;;;;5034279;28;20083;-70
2023/10/16 00:02:59;;;;;;;3.60;1.00;;;8.70;99.90;;;;;;5036370;28;20079;-71
2023/10/16 00:05:28;;;;;;;8.82;1.00;;;8.70;99.90;;;;;;5037855;28;20021;-70
2023/10/16 00:07:56;;;;;;;6.57;0.90;;;8.70;99.90;;;;;;5037067;28;20055;-70
2023/10/16 00:10:22;;;;;;;4.97;1.35;;;8.70;99.90;;;;;;5037142;28;20033;-70
2023/10/16 00:12:50;;;;;;;5.75;0.90;;;8.80;99.90;;;;;;5040889;28;20021;-70
2023/10/16 00:15:16;;;;;;;3.55;1.02;;;8.70;99.90;;;;;;5035297;28;20124;-71
2023/10/16 00:17:43;;;;;;;8.88;0.95;;;8.70;99.90;;;;;;5038274;28;20108;-70
2023/10/16 00:20:14;;;;;;;5.07;1.08;;;8.80;99.90;;;;;;5044773;28;20041;-70
2023/10/16 00:22:43;;;;;;;6.57;1.10;;;8.90;99.90;;;;;;5038576;28;20064;-71
2023/10/16 00:25:10;;;;;;;7.60;1.05;;;8.90;99.90;;;;;;5034448;28;20497;-70
2023/10/16 00:27:39;;;;;;;8.70;1.15;;;8.80;99.90;;;;;;5038226;28;20112;-70
2023/10/16 00:30:11;;;;;;;9.95;0.70;;;8.90;99.90;;;;;;5039790;28;20174;-71
2023/10/16 00:32:40;;;;;;;4.63;0.75;;;8.80;99.90;;;;;;5041901;28;20132;-70
2023/10/16 00:35:08;;;;;;;5.65;0.82;;;8.80;99.90;;;;;;5035380;28;20032;-71
2023/10/16 00:37:34;;;;;;;;;;;8.80;99.90;;;;;;5041368;28;20033;-70
2023/10/16 00:40:02;;;;;;;7.47;0.80;;;8.80;99.90;;;;;;5036648;28;20412;-71
2023/10/16 00:42:29;;;;;;;3.08;1.00;;;8.90;99.90;;;;;;5036406;28;20014;-70
2023/10/16 00:45:00;;;;;;;5.65;0.93;;;8.90;99.90;;;;;;5034165;28;20021;-70
2023/10/16 00:47:26;;;;;;;5.78;0.98;;;8.90;99.90;;;;;;5038418;28;20585;-71
2023/10/16 00:49:52;;;;;;;5.82;1.00;;;8.90;99.90;;;;;;5037747;28;20036;-70
2023/10/16 00:52:20;;;;;;;6.75;1.00;;;9.00;99.90;;;;;;5038756;28;20021;-70
2023/10/16 00:54:46;;;;;;;;;;;9.00;99.90;;;;;;5034333;28;20064;-70
2023/10/16 00:57:14;;;;;;;5.65;1.10;;;8.90;99.90;;;;;;5039174;28;19909;-70
2023/10/16 00:59:41;;;;;;;5.15;0.98;;;8.90;99.90;;;;;;5039693;28;20104;-70
2023/10/16 01:02:14;;;;;;;8.27;1.23;;;8.90;99.90;;;;;;5042381;28;20087;-71
2023/10/16 01:04:40;;;;;;;3.88;0.82;;;8.80;99.90;;;;;;5040304;28;20033;-70
2023/10/16 01:07:06;;;;;;;7.43;1.23;;;8.80;99.90;;;;;;5039355;28;20029;-71
2023/10/16 01:09:35;;;;;;;4.32;1.15;;;8.80;99.90;;;;;;5040831;28;20021;-71
2023/10/16 01:12:11;;;;;;;4.90;1.13;;;8.80;99.90;;;;;;5041636;28;20032;-70
2023/10/16 01:14:38;;;;;;;6.45;1.20;;;8.80;99.90;;;;;;5042316;28;20017;-71
2023/10/16 01:17:10;;;;;;;6.32;0.90;;;8.80;99.90;;;;;;5033816;28;20034;-70
2023/10/16 01:19:36;;;;;;;3.65;0.88;;;8.60;99.90;;;;;;5037216;28;20026;-70
2023/10/16 01:22:03;;;;;;;14.70;0.95;;;8.50;99.90;;;;;;5041516;28;20094;-70
2023/10/16 01:24:29;;;;;;;4.18;0.95;;;8.60;99.90;;;;;;5040620;28;20028;-70
2023/10/16 01:27:06;;;;;;;5.05;0.90;;;8.70;99.90;;;;;;5034011;28;20021;-70
2023/10/16 01:29:33;;;;;;;9.93;0.90;;;8.60;99.90;;;;;;5036120;28;20387;-71
2023/10/16 01:31:59;;;;;;;11.20;1.70;;;8.70;99.90;;;;;;5043335;28;20040;-70
2023/10/16 01:34:25;;;;;;;10.85;1.30;;;8.70;99.90;;;;;;5032993;28;20029;-71
2023/10/16 01:36:51;;;;;;;7.63;1.10;;;8.60;99.90;;;;;;5034352;28;20036;-70
2023/10/16 01:42:02;;;;;;;9.00;0.77;;;8.70;99.90;;;;;;5038971;28;20441;-70
2023/10/16 01:44:31;;;;;;;7.53;1.40;;;8.80;99.90;;;;;;5041270;28;20538;-71
2023/10/16 01:46:57;;;;;;;5.93;1.02;;;8.60;99.90;;;;;;5040387;28;20045;-70
2023/10/16 01:49:24;;;;;;;8.60;1.10;;;8.70;99.90;;;;;;5034433;28;20033;-64
2023/10/16 01:51:55;;;;;;;8.73;1.40;;;8.60;99.90;;;;;;5037661;28;20025;-63
2023/10/16 01:54:22;;;;;;;9.18;1.30;;;8.60;99.90;;;;;;5036488;28;20158;-63
2023/10/16 01:56:50;;;;;;;8.65;1.23;;;8.50;99.90;;;;;;5042005;28;20032;-63
2023/10/16 01:59:18;;;;;;;9.55;1.10;;;8.50;99.90;;;;;;5039408;28;20037;-63
2023/10/16 02:01:43;;;;;;;3.27;0.80;;;8.60;99.90;;;;;;5040782;28;20037;-63
2023/10/16 02:04:09;;;;;;;6.95;1.33;;;8.60;99.90;;;;;;5041762;28;20036;-63
2023/10/16 02:06:39;;;;;;;6.95;1.10;;;8.50;99.90;;;;;;5040983;28;20049;-63
2023/10/16 02:09:12;;;;;;;5.63;1.00;;;8.50;99.90;;;;;;5041950;28;20056;-63
2023/10/16 02:11:41;;;;;;;4.70;0.80;;;8.40;99.90;;;;;;5037598;28;20055;-63
2023/10/16 02:14:08;;;;;;;;;;;8.50;99.90;;;;;;5038486;28;20069;-63
2023/10/16 02:16:37;;;;;;;4.18;1.00;;;8.50;99.90;;;;;;5040714;28;19923;-63
2023/10/16 02:19:05;;;;;;;4.70;1.08;;;8.50;99.90;;;;;;5043296;28;20051;-63
2023/10/16 02:21:31;;;;;;;;;;;8.50;99.90;;;;;;5042483;28;20044;-63
2023/10/16 02:24:03;;;;;;;5.45;1.48;;;8.50;99.90;;;;;;5043254;28;19954;-63
2023/10/16 02:26:30;;;;;;;6.15;0.90;;;8.40;99.90;;;;;;5038897;28;20486;-63
2023/10/16 02:29:00;;;;;;;4.22;1.10;;;8.40;99.90;;;;;;5043936;28;20398;-63
2023/10/16 02:31:29;;;;;;;1.75;0.70;;;8.50;99.90;;;;;;5042543;28;20586;-63
2023/10/16 02:33:55;;;;;;;4.50;1.27;;;8.50;99.90;;;;;;5041839;28;20032;-63
2023/10/16 02:36:24;;;;;;;5.88;1.08;;;8.40;99.90;;;;;;5043797;28;20025;-63
2023/10/16 02:38:55;;;;;;;3.88;1.17;;;8.40;99.90;;;;;;5045821;28;20468;-63
2023/10/16 02:41:21;;;;;;;4.43;1.00;;;8.50;99.90;;;;;;5045699;28;20033;-63
2023/10/16 02:43:49;;;;;;;3.90;0.90;;;8.50;99.90;;;;;;5045847;28;20621;-63
2023/10/16 02:46:21;;;;;;;4.22;0.80;;;8.40;99.90;;;;;;5043805;28;20404;-63
2023/10/16 02:48:50;;;;;;;6.13;1.10;;;8.40;99.90;;;;;;5042255;28;22077;-63
2023/10/16 02:51:16;;;;;;;4.13;1.20;;;8.30;99.90;;;;;;5042552;28;20128;-63
2023/10/16 02:53:48;;;;;;;6.80;0.90;;;8.40;99.90;;;;;;5042078;28;20100;-63
2023/10/16 02:56:17;;;;;;;8.02;1.17;;;8.50;99.90;;;;;;5042379;28;20056;-63
2023/10/16 02:58:47;;;;;;;4.65;0.80;;;8.50;99.90;;;;;;5046656;28;20029;-63
2023/10/16 03:01:15;;;;;;;7.10;1.00;;;8.40;99.90;;;;;;5040273;28;20025;-63
2023/10/16 03:03:48;;;;;;;5.43;1.10;;;8.50;99.90;;;;;;5038669;28;20036;-63
2023/10/16 03:06:15;;;;;;;4.78;1.13;;;8.50;99.90;;;;;;5043698;28;20037;-63
2023/10/16 03:08:48;;;;;;;7.78;1.38;;;8.50;99.90;;;;;;5044154;28;20056;-63
2023/10/16 03:11:17;;;;;;;7.03;0.85;;;8.50;99.90;;;;;;5039745;28;20021;-63
2023/10/16 03:13:50;;;;;;;1.33;0.63;;;8.40;99.90;;;;;;5041556;28;20112;-63
2023/10/16 03:16:26;;;;;;;4.80;1.00;;;8.50;99.90;;;;;;5044813;28;20021;-63
2023/10/16 03:19:09;;;;;;;3.25;1.10;;;8.50;99.90;;;;;;5035598;28;20025;-63
2023/10/16 03:21:35;;;;;;;6.90;1.13;;;8.40;99.90;;;;;;5038460;28;20075;-63
2023/10/16 03:24:00;;;;;;;6.95;1.58;;;8.40;99.90;;;;;;5042000;28;20033;-63
2023/10/16 03:26:29;;;;;;;4.90;0.93;;;8.40;99.90;;;;;;5044812;28;20037;-63
2023/10/16 03:29:02;;;;;;;5.40;1.27;;;8.40;99.90;;;;;;5038408;28;20029;-63
2023/10/16 03:31:28;;;;;;;5.05;1.00;;;8.30;99.90;;;;;;5040268;28;20053;-63
2023/10/16 03:33:55;;;;;;;7.82;1.52;;;8.30;99.90;;;;;;5041596;28;20036;-63
2023/10/16 03:36:21;;;;;;;6.50;1.05;;;8.30;99.90;;;;;;5040933;28;20415;-63
2023/10/16 03:38:51;;;;;;;7.93;1.15;;;8.30;99.90;;;;;;5041028;28;20033;-63
2023/10/16 03:41:28;;;;;;;3.40;1.02;;;8.40;99.90;;;;;;5038748;28;20075;-63
2023/10/16 03:43:58;;;;;;;7.70;1.17;;;8.40;99.90;;;;;;5037952;28;20094;-63
2023/10/16 03:46:25;;;;;;;6.18;1.40;;;8.40;99.90;;;;;;5036245;28;20040;-63
2023/10/16 03:48:54;;;;;;;8.43;0.90;;;8.30;99.90;;;;;;5039170;28;20437;-63
2023/10/16 03:51:21;;;;;;;6.78;1.10;;;8.40;99.90;;;;;;5040872;28;20028;-63
2023/10/16 03:53:47;;;;;;;4.15;0.80;;;8.40;99.90;;;;;;5042159;28;20056;-63
2023/10/16 03:56:16;;;;;;;5.20;0.95;;;8.40;99.90;;;;;;5039908;28;20075;-63
2023/10/16 03:58:43;;;;;;;6.97;1.35;;;8.30;99.90;;;;;;5034732;28;20061;-63
2023/10/16 04:01:10;;;;;;;5.00;1.13;;;8.20;99.90;;;;;;5037592;28;20021;-63
2023/10/16 04:03:50;;;;;;;4.07;1.40;;;8.30;99.90;;;;;;5039198;28;20270;-63
2023/10/16 04:06:19;;;;;;;2.22;1.08;;;8.20;99.90;;;;;;5041723;28;20041;-63
2023/10/16 04:08:47;;;;;;;4.75;1.00;;;8.20;99.90;;;;;;5038277;28;20040;-63
2023/10/16 04:11:13;;;;;;;7.28;1.05;;;8.30;99.90;;;;;;5042511;28;20021;-63
2023/10/16 04:13:47;;;;;;;5.72;1.02;;;8.30;99.90;;;;;;5038731;28;20028;-63
2023/10/16 04:16:30;;;;;;;4.75;0.93;;;8.30;99.90;;;;;;5038760;28;20040;-63
2023/10/16 04:21:50;;;;;;;6.65;0.90;;;8.30;99.90;;;;;;5040427;28;20029;-63
2023/10/16 04:27:29;;;;;;;4.72;1.10;;;8.40;99.90;;;;;;5035471;28;20282;-63
2023/10/16 04:32:40;;;;;;;5.97;0.98;;;8.50;99.90;;;;;;5039093;28;20051;-63
2023/10/16 04:38:27;;;;;;;3.58;0.80;;;8.50;99.90;;;;;;5036092;28;20086;-63
2023/10/16 04:46:31;;;;;;;12.40;1.67;;;8.50;99.90;;;;;;5026956;28;20075;-63
2023/10/16 04:48:58;;;;;;;3.88;1.02;;;8.60;99.90;;;;;;5040320;28;20462;-63
2023/10/16 04:51:27;;;;;;;10.27;1.40;;;8.60;99.90;;;;;;5041198;28;20035;-63
2023/10/16 04:53:58;;;;;;;5.05;1.30;;;8.60;99.90;;;;;;5042660;28;20630;-63
2023/10/16 04:59:37;;;;;;;3.88;1.30;;;8.70;99.90;;;;;;5037584;28;20083;-63
2023/10/16 05:02:11;;;;;;;3.97;1.20;;;8.60;99.90;;;;;;5039797;28;20037;-63
2023/10/16 05:04:59;;;;;;;4.72;1.15;;;8.70;99.90;;;;;;5040070;28;20035;-64
2023/10/16 05:07:38;;;;;;;3.35;1.10;;;8.60;99.90;;;;;;5036827;28;20577;-63
2023/10/16 05:10:17;;;;;;;5.25;1.02;;;8.60;99.90;;;;;;5037286;28;20029;-63
2023/10/16 05:15:51;;;;;;;5.80;1.27;;;8.60;99.90;;;;;;5036308;28;20024;-63
2023/10/16 06:16:20;;;;;;;4.05;1.42;;;8.80;99.90;;;;;;5039832;28;20082;-63
2023/10/16 06:18:47;;;;;;;3.83;1.23;;;8.90;99.90;;;;;;5034240;28;20029;-63
2023/10/16 06:21:14;;;;;;;4.35;1.30;;;8.90;99.90;;;;;;5040292;28;20034;-63
2023/10/16 06:23:53;;;;;;;10.30;2.23;;;8.90;99.90;;;;;;5038988;28;20049;-63
2023/10/16 06:26:22;;;;;;;10.00;1.45;;;8.80;99.90;;;;;;5039372;28;20029;-63
2023/10/16 06:28:49;;;;;;;;;;;8.80;99.90;;;;;;5043305;28;20541;-63
2023/10/16 06:31:25;;;;;;;2.58;1.20;;;8.80;99.90;;;;;;5033819;28;19921;-63
2023/10/16 06:33:56;;;;;;;5.95;1.52;;;8.90;99.90;;;;;;5043864;28;20518;-63
2023/10/16 06:36:28;;;;;;;3.05;1.00;;;8.90;99.90;;;;;;5039683;28;20043;-63
2023/10/16 06:38:54;;;;;;;3.97;1.30;;;8.90;99.90;;;;;;5040619;28;20021;-63
2023/10/16 06:41:26;;;;;;;6.00;2.10;;;8.90;99.90;;;;;;5037258;28;20041;-63
2023/10/16 06:43:54;;;;;;;5.63;1.48;;;8.90;99.90;;;;;;5038305;28;20033;-63
2023/10/16 06:46:23;;;;;;;7.32;2.55;;;8.90;99.90;;;;;;5036053;28;20029;-63
2023/10/16 06:48:52;;;;;;;5.68;1.33;;;9.00;99.90;;;;;;5034242;28;20036;-63
2023/10/16 06:51:25;;;;;;;5.05;1.50;;;9.10;99.90;;;;;;5040614;28;20457;-63
2023/10/16 06:53:53;;;;;;;4.00;1.27;;;9.10;99.90;;;;;;5042156;28;20048;-63
2023/10/16 06:56:34;;;;;;;4.22;1.25;;;9.10;99.90;;;;;;5041563;28;20021;-63
2023/10/16 06:59:00;;;;;;;11.05;2.03;;;9.10;99.90;;;;;;5040849;28;20036;-63
2023/10/16 07:01:28;;;;;;;1.42;1.00;;;9.10;99.90;;;;;;5046910;28;20033;-63
2023/10/16 07:03:56;;;;;;;6.43;1.45;;;9.10;99.90;;;;;;5037102;28;20079;-63
2023/10/16 07:06:32;;;;;;;3.22;1.13;;;9.10;99.90;;;;;;5044205;28;20786;-63
2023/10/16 07:09:00;;;;;;;2.45;0.90;;;9.20;99.90;;;;;;5037334;28;20164;-63
2023/10/16 07:11:27;;;;;;;5.50;1.30;;;9.20;99.90;;;;;;5035173;28;20999;-63
2023/10/16 07:13:55;;;;;;;3.45;1.20;;;9.20;99.90;;;;;;5038553;28;20175;-63
2023/10/16 07:16:22;;;;;;;;;;;9.20;99.90;;;;;;5037679;28;20029;-63
2023/10/16 07:18:54;;;;;;;5.10;1.30;;;9.20;99.90;;;;;;5039729;28;19913;-63
2023/10/16 07:21:20;;;;;;;6.05;1.15;;;9.20;99.90;;;;;;5036087;28;20071;-63
2023/10/16 07:23:46;;;;;;;9.80;1.15;;;9.20;99.90;;;;;;5040991;28;20116;-63
2023/10/16 07:26:18;;;;;;;5.72;1.20;;;9.30;99.90;;;;;;5037941;28;20175;-63
2023/10/16 07:28:48;;;;;;;13.10;1.33;;;9.50;99.90;;;;;;5034037;28;20055;-63
2023/10/16 07:31:16;;;;;;;3.25;1.20;;;9.60;99.90;;;;;;5032078;28;20116;-63
2023/10/16 07:33:50;;;;;;;5.32;1.38;;;9.60;99.90;;;;;;5033141;28;20487;-63
2023/10/16 07:36:18;;;;;;;4.00;1.10;;;9.60;99.90;;;;;;5032743;28;20037;-63
2023/10/16 07:38:44;;;;;;;8.77;1.50;;;9.50;99.90;;;;;;5034235;28;20028;-63
2023/10/16 07:41:13;;;;;;;4.63;1.65;;;9.50;99.90;;;;;;5033947;28;20029;-63
2023/10/16 07:43:45;;;;;;;3.25;1.17;;;9.60;99.90;;;;;;5036624;28;20074;-64
2023/10/16 07:48:45;;;;;;;6.78;1.65;;;9.70;99.90;;;;;;5036883;28;20105;-64
2023/10/16 07:51:16;;;;;;;2.85;0.82;;;9.70;99.90;;;;;;5036262;28;20036;-63
2023/10/16 07:53:42;;;;;;;4.00;1.27;;;9.70;99.90;;;;;;5039007;28;20021;-63
2023/10/16 07:59:43;;;;;;;3.95;1.30;;;9.60;99.90;;;;;;5040930;28;20447;-64
2023/10/16 08:01:45;;;;;;;3.10;1.20;;;9.60;99.90;;;;;;5040360;28;20040;-64
2023/10/16 08:04:27;;;;;;;5.43;1.70;;;9.70;99.90;;;;;;5037597;28;20028;-64
2023/10/16 08:06:57;;;;;;;4.13;1.60;;;9.70;99.90;;;;;;5042362;28;20072;-64
2023/10/16 08:12:18;;;;;;;4.97;1.33;;;9.80;99.90;;;;;;5042768;28;20022;-64
2023/10/16 08:14:42;;;;;;;2.90;1.20;;;9.80;99.90;;;;;;5033626;28;20572;-64
2023/10/16 08:17:23;;;;;;;5.43;1.63;;;9.80;99.90;;;;;;5037104;28;20040;-64
2023/10/16 08:19:52;;;;;;;4.50;1.65;;;9.90;99.90;;;;;;5040745;28;20025;-64
2023/10/16 08:22:22;;;;;;;8.18;1.33;;;9.90;99.90;;;;;;5030804;28;20388;-64
2023/10/16 08:25:07;;;;;;;3.60;1.27;;;9.90;99.90;;;;;;5037706;28;20021;-64
2023/10/16 08:33:06;;;;;;;5.53;1.38;;;10.00;99.90;;;;;;5038360;28;20044;-64
2023/10/16 08:35:38;;;;;;;3.88;1.70;;;10.10;99.90;;;;;;5035882;28;20416;-64
2023/10/16 08:38:25;;;;;;;3.33;1.33;;;10.10;99.90;;;;;;5038984;28;20091;-63
2023/10/16 08:40:58;;;;;;;10.38;1.48;;;10.20;99.90;;;;;;5044426;28;20049;-63
2023/10/16 08:43:53;;;;;;;4.22;1.98;;;10.20;99.90;;;;;;5037950;28;20025;-63
2023/10/16 08:46:30;;;;;;;4.25;1.80;;;10.20;99.90;;;;;;5035870;28;20542;-64
2023/10/16 08:49:00;;;;;;;5.78;1.90;;;10.20;99.90;;;;;;5037644;28;20033;-63
2023/10/16 08:51:28;;;;;;;2.92;1.33;;;10.30;99.90;;;;;;5033922;28;20026;-63
2023/10/16 08:53:59;;;;;;;;;;;10.30;99.90;;;;;;5039330;28;20074;-64
2023/10/16 08:56:25;;;;;;;6.32;2.15;;;10.30;99.90;;;;;;5037831;28;19913;-64
2023/10/16 08:58:55;;;;;;;6.05;2.10;;;10.40;99.90;;;;;;5034575;28;20036;-63
2023/10/16 09:01:23;;;;;;;2.65;1.58;;;10.40;99.90;;;;;;5034134;28;20132;-63
2023/10/16 09:03:56;;;;;;;7.35;1.60;;;10.40;99.90;;;;;;5039410;28;20030;-64
2023/10/16 09:06:23;;;;;;;6.43;1.73;;;10.50;99.90;;;;;;5036649;28;20086;-63
2023/10/16 09:08:50;;;;;;;10.05;1.83;;;10.50;99.90;;;;;;5041592;28;20029;-64
2023/10/16 09:11:16;;;;;;;3.22;1.27;;;10.50;99.90;;;;;;5038966;28;20079;-64
2023/10/16 09:13:46;;;;;;;4.60;1.50;;;10.60;99.90;;;;;;5038320;28;20024;-63
2023/10/16 09:16:15;;;;;;;5.10;1.40;;;10.60;99.90;;;;;;5039156;28;20500;-64
2023/10/16 09:18:45;;;;;;;5.53;1.88;;;10.50;99.90;;;;;;5037450;28;20040;-63
2023/10/16 09:21:13;;;;;;;7.55;2.30;;;10.60;99.90;;;;;;5035212;28;20025;-64
2023/10/16 09:23:51;;;;;;;;;;;10.60;99.90;;;;;;5035825;28;20030;-63
2023/10/16 09:26:17;;;;;;;;;;;10.60;99.90;;;;;;5035623;28;19917;-63
2023/10/16 09:28:47;;;;;;;7.88;1.85;;;10.70;99.90;;;;;;5038714;28;20303;-64
2023/10/16 09:31:18;;;;;;;3.60;1.70;;;10.80;99.90;;;;;;5038950;28;20025;-64
2023/10/16 09:33:49;;;;;;;5.18;1.90;;;10.80;99.90;;;;;;5039041;28;20368;-64
2023/10/16 09:36:20;;;;;;;5.55;2.00;;;10.80;99.90;;;;;;5038489;28;20043;-64
2023/10/16 09:38:51;;;;;;;6.07;2.00;;;10.80;99.90;;;;;;5036911;28;20036;-63
2023/10/16 09:44:06;;;;;;;5.10;2.75;;;10.70;99.90;;;;;;5038963;28;20475;-64
2023/10/16 09:49:14;;;;;;;6.18;2.92;;;10.90;99.90;;;;;;5037235;28;20036;-65
2023/10/16 09:51:44;;;;;;;6.05;2.30;;;11.00;99.90;;;;;;5034023;28;20052;-63
2023/10/16 09:54:11;;;;;;;6.32;2.80;;;11.10;99.90;;;;;;5034992;28;20035;-73
2023/10/16 09:56:44;;;;;;;4.63;2.30;;;11.20;99.90;;;;;;5040760;28;20026;-73
2023/10/16 09:59:22;;;;;;;5.40;2.35;;;11.10;99.90;;;;;;5044433;28;20934;-73
2023/10/16 10:01:51;;;;;;;7.90;2.45;;;11.10;99.90;;;;;;5041270;28;20025;-73
2023/10/16 10:04:24;;;;;;;7.28;2.80;;;11.20;99.90;;;;;;5042659;28;20124;-72
2023/10/16 10:06:58;;;;;;;5.90;2.67;;;11.30;99.90;;;;;;5041041;28;20096;-73
2023/10/16 10:09:41;;;;;;;4.65;2.03;;;11.30;99.90;;;;;;5043250;28;20033;-72
2023/10/16 10:12:28;;;;;;;4.63;2.38;;;11.40;99.90;;;;;;5037549;28;20029;-73
2023/10/16 10:15:12;;;;;;;6.88;2.25;;;11.40;99.90;;;;;;5041899;28;20091;-72
2023/10/16 10:17:40;;;;;;;6.60;2.45;;;11.50;99.90;;;;;;5042028;28;20025;-72
2023/10/16 10:20:17;;;;;;;6.55;3.13;;;11.50;99.90;;;;;;5043375;28;20021;-72
2023/10/16 10:22:45;;;;;;;7.93;2.92;;;11.50;99.90;;;;;;5037297;28;20029;-72
2023/10/16 10:25:26;;;;;;;11.35;4.32;;;11.50;99.90;;;;;;5041647;28;20660;-72
2023/10/16 10:28:09;;;;;;;5.85;3.45;;;11.50;99.90;;;;;;5040656;28;20066;-72
2023/10/16 10:30:38;;;;;;;10.10;3.05;;;11.60;99.90;;;;;;5040381;28;20021;-71
2023/10/16 10:33:05;;;;;;;5.80;2.65;;;11.70;99.90;;;;;;5038821;28;20111;-72
2023/10/16 10:35:38;;;;;;;7.22;2.55;;;11.60;99.90;;;;;;5043859;28;20029;-70
2023/10/16 10:38:07;;;;;;;6.50;3.22;;;11.60;99.90;;;;;;5045369;28;20417;-72
2023/10/16 10:40:35;;;;;;;5.82;2.67;;;11.60;99.90;;;;;;5038319;28;20017;-73
2023/10/16 10:43:03;;;;;;;9.02;4.00;;;11.60;99.90;;;;;;5041082;28;20032;-73
2023/10/16 10:45:36;;;;;;;5.82;3.03;;;11.70;99.90;;;;;;5043318;28;20474;-73
2023/10/16 10:48:11;;;;;;;4.18;2.03;;;11.60;99.90;;;;;;5037945;28;20032;-73
2023/10/16 10:50:45;;;;;;;3.92;1.85;;;11.60;99.90;;;;;;5045035;28;20021;-72
2023/10/16 10:53:15;;;;;;;3.83;1.80;;;11.60;99.90;;;;;;5040394;28;20029;-72
2023/10/16 10:55:58;;;;;;;3.17;1.63;;;11.60;99.90;;;;;;5038087;28;20839;-73
2023/10/16 10:58:37;;;;;;;2.85;1.90;;;11.60;99.90;;;;;;5041468;28;20122;-72
2023/10/16 11:01:16;;;;;;;8.90;2.53;;;11.70;99.90;;;;;;5030202;28;20047;-73
2023/10/16 11:03:45;;;;;;;3.95;2.95;;;11.90;99.90;;;;;;5035831;28;20079;-73
2023/10/16 11:06:18;;;;;;;6.03;2.13;;;12.00;99.90;;;;;;5039030;28;20028;-73
2023/10/16 11:08:50;;;;;;;4.30;2.40;;;12.00;99.90;;;;;;5036143;28;20032;-72
2023/10/16 11:11:16;;;;;;;4.22;2.13;;;11.90;99.90;;;;;;5041025;28;20028;-73
2023/10/16 11:13:48;;;;;;;3.97;1.70;;;11.90;99.90;;;;;;5036831;28;20013;-72
2023/10/16 11:16:19;;;;;;;3.80;1.60;;;11.90;99.90;;;;;;5042622;28;20022;-72
2023/10/16 11:19:08;;;;;;;5.82;1.17;;;11.90;99.90;;;;;;5040504;28;20315;-72
2023/10/16 11:21:35;;;;;;;9.48;1.60;;;11.80;99.90;;;;;;5044394;28;20032;-71
2023/10/16 11:24:05;;;;;;;2.00;0.75;;;11.70;99.90;;;;;;5038638;28;20243;-72
2023/10/16 11:26:34;;;;;;;3.10;0.93;;;11.70;99.90;;;;;;5034459;28;20040;-72
2023/10/16 11:29:00;;;;;;;0.80;0.60;;;11.80;99.90;;;;;;5040909;28;20036;-72
2023/10/16 11:31:26;;;;;;;6.68;0.88;;;11.90;99.90;;;;;;5041941;28;20021;-72
2023/10/16 11:34:01;;;;;;;5.28;0.60;;;12.00;99.90;;;;;;5041889;28;20044;-72
2023/10/16 11:36:35;;;;;;;2.22;0.80;;;11.90;99.90;;;;;;5034814;28;20025;-72
2023/10/16 11:39:06;;;;;;;4.78;0.70;;;11.90;99.90;;;;;;5039568;28;20028;-72
2023/10/16 11:41:36;;;;;;;3.60;0.70;;;11.80;99.90;;;;;;5039110;28;20021;-73
2023/10/16 11:44:12;;;;;;;2.70;0.80;;;11.80;99.90;;;;;;5036161;28;20033;-72
2023/10/16 11:46:44;;;;;;;4.03;0.70;;;11.70;99.90;;;;;;5038800;28;20026;-72
2023/10/16 11:51:49;;;;;;;5.25;0.70;;;11.60;99.90;;;;;;5038827;28;20434;-72
2023/10/16 11:54:19;;;;;;;2.35;0.73;;;11.50;99.90;;;;;;5039616;28;20442;-72
2023/10/16 11:56:47;;;;;;;1.67;0.65;;;11.60;99.90;;;;;;5036630;28;20017;-72
2023/10/16 11:59:15;;;;;;;2.15;0.60;;;11.60;99.90;;;;;;5037400;28;20078;-74
2023/10/16 12:01:44;;;;;;;;;;;11.60;99.90;;;;;;5040525;28;20112;-73
2023/10/16 12:04:10;;;;;;;1.15;0.60;;;11.70;99.90;;;;;;5040491;28;19931;-72
2023/10/16 12:06:35;;;;;;;3.40;0.70;;;11.70;99.90;;;;;;5032776;28;20029;-72
2023/10/16 12:09:06;;;;;;;1.83;0.80;;;11.90;99.90;;;;;;5036342;28;20113;-73
2023/10/16 12:11:34;;;;;;;2.22;0.90;;;11.70;99.90;;;;;;5040073;28;20036;-72
2023/10/16 12:14:01;;;;;;;7.22;1.15;;;11.80;99.90;;;;;;5041218;28;20032;-72
2023/10/16 12:16:29;;;;;;;4.43;0.98;;;12.00;99.90;;;;;;5037353;28;20033;-72
2023/10/16 12:18:56;;;;;;;;;;;12.10;99.90;;;;;;5042013;28;20063;-72
2023/10/16 12:21:23;;;;;;;1.85;1.00;;;12.20;99.90;;;;;;5042310;28;19913;-72
2023/10/16 12:23:50;;;;;;;5.65;1.27;;;12.10;99.90;;;;;;5039109;28;20029;-72
2023/10/16 12:26:16;;;;;;;5.88;1.27;;;12.00;99.90;;;;;;5039795;28;20017;-72
2023/10/16 12:28:43;;;;;;;3.58;1.40;;;12.10;99.90;;;;;;5041205;28;20029;-73
2023/10/16 12:31:09;;;;;;;2.53;1.40;;;12.10;99.90;;;;;;5040035;28;20029;-73
2023/10/16 12:33:37;;;;;;;8.70;1.30;;;12.10;99.90;;;;;;5033895;28;20467;-73
2023/10/16 12:36:07;;;;;;;;;;;12.10;99.90;;;;;;5039211;28;20079;-73
2023/10/16 12:38:33;;;;;;;2.22;0.70;;;12.00;99.90;;;;;;5033908;28;19908;-73
2023/10/16 12:41:00;;;;;;;5.70;1.23;;;12.10;99.90;;;;;;5032035;28;20041;-73
2023/10/16 12:43:27;;;;;;;6.00;1.25;;;12.10;99.90;;;;;;5037638;28;20033;-73
2023/10/16 12:45:57;;;;;;;8.40;1.80;;;12.20;99.90;;;;;;5035883;28;20537;-72
2023/10/16 12:48:28;;;;;;;3.38;1.23;;;12.20;99.90;;;;;;5043284;28;20064;-72
2023/10/16 12:50:59;;;;;;;7.53;1.63;;;12.30;99.90;;;;;;5036921;28;20025;-72
2023/10/16 12:53:26;;;;;;;5.15;1.50;;;12.30;99.90;;;;;;5035661;28;20513;-73
2023/10/16 12:55:55;;;;;;;2.90;0.90;;;12.30;99.90;;;;;;5033086;28;20472;-71
2023/10/16 12:58:23;;;;;;;3.25;1.02;;;12.40;99.90;;;;;;5041526;28;20470;-73
2023/10/16 13:00:52;;;;;;;4.10;1.30;;;12.50;99.90;;;;;;5038878;28;20045;-73
2023/10/16 13:03:23;;;;;;;4.57;1.00;;;12.50;99.90;;;;;;5034754;28;20029;-73
2023/10/16 13:05:49;;;;;;;4.30;1.20;;;12.60;99.90;;;;;;5040759;28;20104;-72
2023/10/16 13:08:17;;;;;;;5.20;1.98;;;12.70;99.90;;;;;;5038367;28;20017;-74
2023/10/16 13:10:44;;;;;;;3.92;1.05;;;12.50;99.90;;;;;;5037056;28;20569;-73
2023/10/16 13:13:20;;;;;;;8.93;1.55;;;12.40;99.90;;;;;;5037818;28;21598;-73
2023/10/16 13:15:51;;;;;;;3.08;1.33;;;12.30;99.90;;;;;;5030047;28;20041;-73
2023/10/16 13:18:27;;;;;;;5.30;1.10;;;12.40;99.90;;;;;;5033633;28;20264;-73
2023/10/16 13:20:57;;;;;;;3.03;1.23;;;12.40;99.90;;;;;;5038332;28;20712;-72
2023/10/16 13:23:27;;;;;;;2.90;1.30;;;12.50;99.90;;;;;;5031354;28;20027;-73
2023/10/16 13:25:56;;;;;;;4.88;1.40;;;12.60;99.90;;;;;;5038848;28;20028;-73
2023/10/16 13:28:23;;;;;;;3.83;1.55;;;12.70;99.90;;;;;;5035076;28;20052;-73
2023/10/16 13:30:51;;;;;;;1.40;0.88;;;12.70;99.90;;;;;;5036521;28;20021;-73
2023/10/16 13:33:17;;;;;;;5.03;1.15;;;12.60;99.90;;;;;;5036314;28;20048;-73
2023/10/16 13:35:43;;;;;;;2.42;0.75;;;12.60;99.90;;;;;;5034818;28;20415;-73
2023/10/16 13:38:11;;;;;;;3.20;1.08;;;12.80;99.90;;;;;;5040395;28;20039;-73
2023/10/16 13:40:39;;;;;;;4.25;0.95;;;12.80;99.90;;;;;;5040514;28;20030;-73
2023/10/16 13:43:11;;;;;;;4.68;1.67;;;12.80;99.90;;;;;;5039867;28;20068;-73
2023/10/16 13:45:38;;;;;;;4.75;1.27;;;12.70;99.90;;;;;;5040839;28;20025;-73
2023/10/16 13:48:08;;;;;;;6.15;1.05;;;12.60;99.90;;;;;;5041558;28;20029;-72
2023/10/16 13:50:34;;;;;;;1.70;0.80;;;12.60;99.90;;;;;;5032884;28;20025;-73
2023/10/16 13:53:04;;;;;;;3.85;1.00;;;12.60;99.90;;;;;;5038932;28;20044;-73
2023/10/16 13:55:30;;;;;;;4.00;1.10;;;12.70;99.90;;;;;;5033867;28;20045;-73
2023/10/16 13:57:56;;;;;;;4.32;0.70;;;12.70;99.90;;;;;;5041402;28;20403;-73
2023/10/16 14:00:35;;;;;;;3.58;1.10;;;12.70;99.90;;;;;;5038876;28;20026;-73
2023/10/16 14:03:09;;;;;;;7.53;1.10;;;12.70;99.90;;;;;;5042481;28;20112;-73
2023/10/16 14:05:46;;;;;;;2.53;0.82;;;12.70;99.90;;;;;;5032774;28;20018;-73
2023/10/16 14:08:17;;;;;;;5.28;1.35;;;12.70;99.90;;;;;;5034243;28;20075;-73
2023/10/16 14:10:49;;;;;;;3.72;0.98;;;12.70;99.90;;;;;;5036338;28;20480;-72
2023/10/16 14:13:26;;;;;;;5.70;1.38;;;12.70;99.90;;;;;;5032311;28;20029;-73
2023/10/16 14:15:57;;;;;;;4.18;0.90;;;12.60;99.90;;;;;;5042169;28;20025;-73
2023/10/16 14:18:26;;;;;;;3.85;1.45;;;12.50;99.90;;;;;;5041227;28;20033;-75
2023/10/16 14:20:52;;;;;;;3.85;1.27;;;12.50;99.90;;;;;;5046073;28;21059;-73
2023/10/16 14:23:19;;;;;;;3.45;1.10;;;12.50;99.90;;;;;;5047189;28;20060;-73
2023/10/16 14:25:48;;;;;;;2.83;1.00;;;12.40;99.90;;;;;;5038619;28;20074;-73
2023/10/16 14:28:33;;;;;;;5.53;1.60;;;12.40;99.90;;;;;;5040587;28;20022;-73
2023/10/16 14:31:02;;;;;;;3.00;1.60;;;12.30;99.90;;;;;;5044892;28;20025;-73
2023/10/16 14:33:30;;;;;;;3.90;1.13;;;12.30;99.90;;;;;;5041356;28;20025;-73
2023/10/16 14:36:00;;;;;;;3.40;1.48;;;12.30;99.90;;;;;;5046489;28;20028;-73
2023/10/16 14:38:27;;;;;;;1.52;0.90;;;12.30;99.90;;;;;;5043914;28;20037;-73
2023/10/16 14:41:04;;;;;;;5.22;1.38;;;12.30;99.90;;;;;;5045039;28;20094;-73
2023/10/16 14:43:34;;;;;;;2.22;1.00;;;12.30;99.90;;;;;;5044585;28;20028;-72
2023/10/16 14:46:07;;;;;;;7.90;1.17;;;12.20;99.90;;;;;;5045697;28;20053;-73
2023/10/16 14:48:33;;;;;;;4.70;1.38;;;12.20;99.90;;;;;;5037803;28;20036;-74
2023/10/16 14:51:00;;;;;;;2.97;1.27;;;12.30;99.90;;;;;;5038403;28;20040;-72
2023/10/16 14:53:28;;;;;;;3.60;1.60;;;12.20;99.90;;;;;;5042510;28;20121;-72
2023/10/16 14:55:54;;;;;;;2.22;1.60;;;12.10;99.90;;;;;;5039904;28;20029;-72